sensor_id;sensor_type;location;lat;lon;timestamp;P1;durP1;ratioP1;P2;durP2;ratioP2
10226;SDS011;15634;48.766;2.272;2023-02-21T00:00:52;19.13;;;10.20;;
10226;SDS011;15634;48.766;2.272;2023-02-21T00:03:36;16.52;;;9.68;;
10226;SDS011;15634;48.766;2.272;2023-02-21T00:06:20;19.15;;;9.50;;
10226;SDS011;15634;48.766;2.272;2023-02-21T00:11:48;19.25;;;9.95;;
10226;SDS011;15634;48.766;2.272;2023-02-21T00:14:32;16.77;;;9.88;;
10226;SDS011;15634;48.766;2.272;2023-02-21T00:17:18;18.73;;;10.57;;
10226;SDS011;15634;48.766;2.272;2023-02-21T00:20:01;14.95;;;9.70;;
10226;SDS011;15634;48.766;2.272;2023-02-21T00:22:45;17.13;;;9.80;;
10226;SDS011;15634;48.766;2.272;2023-02-21T00:25:29;20.20;;;9.95;;
10226;SDS011;15634;48.766;2.272;2023-02-21T00:28:13;17.23;;;10.32;;
10226;SDS011;15634;48.766;2.272;2023-02-21T00:30:57;16.85;;;9.65;;
10226;SDS011;15634;48.766;2.272;2023-02-21T00:36:26;17.05;;;9.90;;
10226;SDS011;15634;48.766;2.272;2023-02-21T00:39:10;17.42;;;10.73;;
10226;SDS011;15634;48.766;2.272;2023-02-21T00:41:54;18.20;;;10.30;;
10226;SDS011;15634;48.766;2.272;2023-02-21T00:44:38;14.70;;;9.77;;
10226;SDS011;15634;48.766;2.272;2023-02-21T00:47:22;17.65;;;10.93;;
10226;SDS011;15634;48.766;2.272;2023-02-21T00:50:07;19.35;;;10.95;;
10226;SDS011;15634;48.766;2.272;2023-02-21T00:52:52;16.55;;;10.40;;
10226;SDS011;15634;48.766;2.272;2023-02-21T00:58:19;14.57;;;10.15;;
10226;SDS011;15634;48.766;2.272;2023-02-21T01:01:04;18.73;;;10.23;;
10226;SDS011;15634;48.766;2.272;2023-02-21T01:06:33;20.15;;;10.02;;
10226;SDS011;15634;48.766;2.272;2023-02-21T01:09:17;15.88;;;10.63;;
10226;SDS011;15634;48.766;2.272;2023-02-21T01:12:01;17.02;;;10.25;;
10226;SDS011;15634;48.766;2.272;2023-02-21T01:17:29;19.35;;;10.30;;
10226;SDS011;15634;48.766;2.272;2023-02-21T01:22:58;16.75;;;10.05;;
10226;SDS011;15634;48.766;2.272;2023-02-21T01:25:42;17.25;;;10.52;;
10226;SDS011;15634;48.766;2.272;2023-02-21T01:28:26;17.30;;;10.38;;
10226;SDS011;15634;48.766;2.272;2023-02-21T01:31:10;16.48;;;10.68;;
10226;SDS011;15634;48.766;2.272;2023-02-21T01:33:54;17.55;;;10.90;;
10226;SDS011;15634;48.766;2.272;2023-02-21T01:36:39;16.75;;;10.68;;
10226;SDS011;15634;48.766;2.272;2023-02-21T01:39:24;15.88;;;9.98;;
10226;SDS011;15634;48.766;2.272;2023-02-21T01:42:09;15.55;;;10.15;;
10226;SDS011;15634;48.766;2.272;2023-02-21T01:45:05;17.60;;;10.18;;
10226;SDS011;15634;48.766;2.272;2023-02-21T01:48:13;16.05;;;9.88;;
10226;SDS011;15634;48.766;2.272;2023-02-21T01:50:58;15.23;;;10.30;;
10226;SDS011;15634;48.766;2.272;2023-02-21T01:53:43;16.52;;;9.85;;
10226;SDS011;15634;48.766;2.272;2023-02-21T01:56:28;16.35;;;10.30;;
10226;SDS011;15634;48.766;2.272;2023-02-21T01:59:13;16.05;;;9.82;;
10226;SDS011;15634;48.766;2.272;2023-02-21T02:01:58;20.25;;;11.70;;
10226;SDS011;15634;48.766;2.272;2023-02-21T02:04:45;16.45;;;10.70;;
10226;SDS011;15634;48.766;2.272;2023-02-21T02:07:30;16.45;;;10.02;;
10226;SDS011;15634;48.766;2.272;2023-02-21T02:10:14;14.32;;;10.77;;
10226;SDS011;15634;48.766;2.272;2023-02-21T02:13:12;16.73;;;10.93;;
10226;SDS011;15634;48.766;2.272;2023-02-21T02:15:48;16.15;;;10.15;;
10226;SDS011;15634;48.766;2.272;2023-02-21T02:18:36;15.73;;;10.30;;
10226;SDS011;15634;48.766;2.272;2023-02-21T02:21:25;17.48;;;10.88;;
10226;SDS011;15634;48.766;2.272;2023-02-21T02:24:21;16.00;;;10.32;;
10226;SDS011;15634;48.766;2.272;2023-02-21T02:26:59;16.40;;;10.75;;
10226;SDS011;15634;48.766;2.272;2023-02-21T02:29:55;16.50;;;10.48;;
10226;SDS011;15634;48.766;2.272;2023-02-21T02:32:50;17.67;;;10.80;;
10226;SDS011;15634;48.766;2.272;2023-02-21T02:35:43;20.55;;;10.82;;
10226;SDS011;15634;48.766;2.272;2023-02-21T02:38:13;19.50;;;10.45;;
10226;SDS011;15634;48.766;2.272;2023-02-21T02:40:45;17.98;;;10.27;;
10226;SDS011;15634;48.766;2.272;2023-02-21T02:43:14;17.58;;;10.80;;
10226;SDS011;15634;48.766;2.272;2023-02-21T02:45:45;15.75;;;10.63;;
10226;SDS011;15634;48.766;2.272;2023-02-21T02:48:15;15.57;;;10.60;;
10226;SDS011;15634;48.766;2.272;2023-02-21T02:50:48;17.67;;;10.75;;
10226;SDS011;15634;48.766;2.272;2023-02-21T02:53:17;16.73;;;10.65;;
10226;SDS011;15634;48.766;2.272;2023-02-21T02:55:46;17.40;;;10.55;;
10226;SDS011;15634;48.766;2.272;2023-02-21T02:58:16;16.35;;;10.20;;
10226;SDS011;15634;48.766;2.272;2023-02-21T03:00:44;17.13;;;11.02;;
10226;SDS011;15634;48.766;2.272;2023-02-21T03:03:21;17.02;;;10.70;;
10226;SDS011;15634;48.766;2.272;2023-02-21T03:06:02;15.40;;;10.05;;
10226;SDS011;15634;48.766;2.272;2023-02-21T03:08:36;18.42;;;10.82;;
10226;SDS011;15634;48.766;2.272;2023-02-21T03:11:08;17.33;;;10.98;;
10226;SDS011;15634;48.766;2.272;2023-02-21T03:13:39;16.73;;;10.50;;
10226;SDS011;15634;48.766;2.272;2023-02-21T03:16:08;17.73;;;11.25;;
10226;SDS011;15634;48.766;2.272;2023-02-21T03:18:40;20.30;;;10.75;;
10226;SDS011;15634;48.766;2.272;2023-02-21T03:21:10;17.40;;;11.13;;
10226;SDS011;15634;48.766;2.272;2023-02-21T03:23:39;17.17;;;11.05;;
10226;SDS011;15634;48.766;2.272;2023-02-21T03:26:08;19.45;;;11.73;;
10226;SDS011;15634;48.766;2.272;2023-02-21T03:28:36;14.75;;;10.15;;
10226;SDS011;15634;48.766;2.272;2023-02-21T03:31:03;16.50;;;11.10;;
10226;SDS011;15634;48.766;2.272;2023-02-21T03:33:30;19.38;;;12.13;;
10226;SDS011;15634;48.766;2.272;2023-02-21T03:35:58;18.83;;;11.85;;
10226;SDS011;15634;48.766;2.272;2023-02-21T03:38:28;20.77;;;11.77;;
10226;SDS011;15634;48.766;2.272;2023-02-21T03:40:54;18.38;;;11.38;;
10226;SDS011;15634;48.766;2.272;2023-02-21T03:43:21;19.45;;;12.07;;
10226;SDS011;15634;48.766;2.272;2023-02-21T03:45:48;19.23;;;11.60;;
10226;SDS011;15634;48.766;2.272;2023-02-21T03:48:14;19.20;;;12.32;;
10226;SDS011;15634;48.766;2.272;2023-02-21T03:50:41;19.10;;;11.75;;
10226;SDS011;15634;48.766;2.272;2023-02-21T03:53:08;17.55;;;12.18;;
10226;SDS011;15634;48.766;2.272;2023-02-21T03:55:36;20.08;;;11.77;;
10226;SDS011;15634;48.766;2.272;2023-02-21T03:58:02;22.63;;;13.90;;
10226;SDS011;15634;48.766;2.272;2023-02-21T04:00:29;26.98;;;14.75;;
10226;SDS011;15634;48.766;2.272;2023-02-21T04:02:56;22.77;;;14.07;;
10226;SDS011;15634;48.766;2.272;2023-02-21T04:05:22;20.88;;;13.30;;
10226;SDS011;15634;48.766;2.272;2023-02-21T04:07:49;21.48;;;12.95;;
10226;SDS011;15634;48.766;2.272;2023-02-21T04:10:15;24.38;;;13.38;;
10226;SDS011;15634;48.766;2.272;2023-02-21T04:12:43;20.35;;;13.02;;
10226;SDS011;15634;48.766;2.272;2023-02-21T04:15:10;21.75;;;13.27;;
10226;SDS011;15634;48.766;2.272;2023-02-21T04:17:37;23.20;;;13.63;;
10226;SDS011;15634;48.766;2.272;2023-02-21T04:20:04;20.80;;;12.25;;
10226;SDS011;15634;48.766;2.272;2023-02-21T04:22:31;19.63;;;12.43;;
10226;SDS011;15634;48.766;2.272;2023-02-21T04:24:57;19.95;;;12.88;;
10226;SDS011;15634;48.766;2.272;2023-02-21T04:27:24;19.02;;;12.85;;
10226;SDS011;15634;48.766;2.272;2023-02-21T04:29:52;19.27;;;12.48;;
10226;SDS011;15634;48.766;2.272;2023-02-21T04:32:19;19.20;;;12.52;;
10226;SDS011;15634;48.766;2.272;2023-02-21T04:34:45;20.52;;;12.95;;
10226;SDS011;15634;48.766;2.272;2023-02-21T04:37:12;22.17;;;13.57;;
10226;SDS011;15634;48.766;2.272;2023-02-21T04:39:39;23.65;;;13.90;;
10226;SDS011;15634;48.766;2.272;2023-02-21T04:42:05;21.60;;;14.05;;
10226;SDS011;15634;48.766;2.272;2023-02-21T04:44:33;26.58;;;15.45;;
10226;SDS011;15634;48.766;2.272;2023-02-21T04:47:01;24.42;;;14.32;;
10226;SDS011;15634;48.766;2.272;2023-02-21T04:49:28;24.17;;;14.52;;
10226;SDS011;15634;48.766;2.272;2023-02-21T04:51:54;23.75;;;14.93;;
10226;SDS011;15634;48.766;2.272;2023-02-21T04:54:21;23.27;;;14.52;;
10226;SDS011;15634;48.766;2.272;2023-02-21T04:56:47;29.48;;;15.38;;
10226;SDS011;15634;48.766;2.272;2023-02-21T04:59:14;23.70;;;14.82;;
10226;SDS011;15634;48.766;2.272;2023-02-21T05:01:41;21.80;;;13.80;;
10226;SDS011;15634;48.766;2.272;2023-02-21T05:04:09;21.80;;;14.25;;
10226;SDS011;15634;48.766;2.272;2023-02-21T05:06:35;24.92;;;15.35;;
10226;SDS011;15634;48.766;2.272;2023-02-21T05:09:02;25.58;;;14.52;;
10226;SDS011;15634;48.766;2.272;2023-02-21T05:11:31;22.98;;;14.98;;
10226;SDS011;15634;48.766;2.272;2023-02-21T05:13:58;23.52;;;14.82;;
10226;SDS011;15634;48.766;2.272;2023-02-21T05:16:25;25.77;;;15.05;;
10226;SDS011;15634;48.766;2.272;2023-02-21T05:18:52;24.67;;;15.23;;
10226;SDS011;15634;48.766;2.272;2023-02-21T05:21:20;25.40;;;16.17;;
10226;SDS011;15634;48.766;2.272;2023-02-21T05:23:46;25.13;;;15.40;;
10226;SDS011;15634;48.766;2.272;2023-02-21T05:26:22;28.63;;;16.75;;
10226;SDS011;15634;48.766;2.272;2023-02-21T05:28:50;28.23;;;16.13;;
10226;SDS011;15634;48.766;2.272;2023-02-21T05:31:17;28.35;;;16.60;;
10226;SDS011;15634;48.766;2.272;2023-02-21T05:33:44;28.75;;;16.38;;
10226;SDS011;15634;48.766;2.272;2023-02-21T05:36:10;27.30;;;16.80;;
10226;SDS011;15634;48.766;2.272;2023-02-21T05:38:48;30.85;;;17.48;;
10226;SDS011;15634;48.766;2.272;2023-02-21T05:41:16;23.33;;;15.90;;
10226;SDS011;15634;48.766;2.272;2023-02-21T05:43:43;29.17;;;16.63;;
10226;SDS011;15634;48.766;2.272;2023-02-21T05:46:16;28.75;;;17.27;;
10226;SDS011;15634;48.766;2.272;2023-02-21T05:48:44;25.50;;;16.33;;
10226;SDS011;15634;48.766;2.272;2023-02-21T05:51:11;28.05;;;16.25;;
10226;SDS011;15634;48.766;2.272;2023-02-21T05:53:37;28.73;;;16.90;;
10226;SDS011;15634;48.766;2.272;2023-02-21T05:56:05;28.23;;;16.88;;
10226;SDS011;15634;48.766;2.272;2023-02-21T05:58:32;26.80;;;16.70;;
10226;SDS011;15634;48.766;2.272;2023-02-21T06:00:59;28.95;;;17.10;;
10226;SDS011;15634;48.766;2.272;2023-02-21T06:03:25;30.08;;;17.05;;
10226;SDS011;15634;48.766;2.272;2023-02-21T06:05:52;30.48;;;17.42;;
10226;SDS011;15634;48.766;2.272;2023-02-21T06:08:19;30.80;;;18.52;;
10226;SDS011;15634;48.766;2.272;2023-02-21T06:10:45;29.60;;;17.65;;
10226;SDS011;15634;48.766;2.272;2023-02-21T06:13:13;30.42;;;18.30;;
10226;SDS011;15634;48.766;2.272;2023-02-21T06:15:40;30.83;;;18.45;;
10226;SDS011;15634;48.766;2.272;2023-02-21T06:18:06;31.90;;;17.80;;
10226;SDS011;15634;48.766;2.272;2023-02-21T06:20:33;37.88;;;18.75;;
10226;SDS011;15634;48.766;2.272;2023-02-21T06:22:59;33.30;;;18.77;;
10226;SDS011;15634;48.766;2.272;2023-02-21T06:25:26;38.03;;;20.42;;
10226;SDS011;15634;48.766;2.272;2023-02-21T06:27:53;36.90;;;21.70;;
10226;SDS011;15634;48.766;2.272;2023-02-21T06:30:21;33.15;;;21.02;;
10226;SDS011;15634;48.766;2.272;2023-02-21T06:32:47;31.38;;;20.00;;
10226;SDS011;15634;48.766;2.272;2023-02-21T06:35:14;37.50;;;20.13;;
10226;SDS011;15634;48.766;2.272;2023-02-21T06:37:40;31.77;;;18.73;;
10226;SDS011;15634;48.766;2.272;2023-02-21T06:40:07;36.17;;;20.95;;
10226;SDS011;15634;48.766;2.272;2023-02-21T06:42:34;39.17;;;20.05;;
10226;SDS011;15634;48.766;2.272;2023-02-21T06:45:01;34.75;;;19.80;;
10226;SDS011;15634;48.766;2.272;2023-02-21T06:47:31;36.63;;;19.92;;
10226;SDS011;15634;48.766;2.272;2023-02-21T06:49:57;36.97;;;20.52;;
10226;SDS011;15634;48.766;2.272;2023-02-21T06:52:24;35.90;;;19.80;;
10226;SDS011;15634;48.766;2.272;2023-02-21T06:54:51;41.17;;;22.27;;
10226;SDS011;15634;48.766;2.272;2023-02-21T06:57:17;31.52;;;20.83;;
10226;SDS011;15634;48.766;2.272;2023-02-21T06:59:44;34.85;;;20.90;;
10226;SDS011;15634;48.766;2.272;2023-02-21T07:02:15;36.17;;;21.65;;
10226;SDS011;15634;48.766;2.272;2023-02-21T07:04:44;35.00;;;20.60;;
10226;SDS011;15634;48.766;2.272;2023-02-21T07:07:11;36.65;;;21.27;;
10226;SDS011;15634;48.766;2.272;2023-02-21T07:09:38;35.90;;;21.17;;
10226;SDS011;15634;48.766;2.272;2023-02-21T07:12:05;38.40;;;21.50;;
10226;SDS011;15634;48.766;2.272;2023-02-21T07:14:33;36.03;;;20.80;;
10226;SDS011;15634;48.766;2.272;2023-02-21T07:16:59;35.72;;;21.00;;
10226;SDS011;15634;48.766;2.272;2023-02-21T07:19:26;38.42;;;21.55;;
10226;SDS011;15634;48.766;2.272;2023-02-21T07:21:54;34.72;;;21.52;;
10226;SDS011;15634;48.766;2.272;2023-02-21T07:24:21;41.88;;;23.15;;
10226;SDS011;15634;48.766;2.272;2023-02-21T07:26:48;45.60;;;25.35;;
10226;SDS011;15634;48.766;2.272;2023-02-21T07:29:14;39.72;;;24.33;;
10226;SDS011;15634;48.766;2.272;2023-02-21T07:31:42;42.90;;;23.45;;
10226;SDS011;15634;48.766;2.272;2023-02-21T07:34:08;42.92;;;25.30;;
10226;SDS011;15634;48.766;2.272;2023-02-21T07:36:36;45.08;;;24.88;;
10226;SDS011;15634;48.766;2.272;2023-02-21T07:39:04;44.20;;;24.88;;
10226;SDS011;15634;48.766;2.272;2023-02-21T07:41:31;45.22;;;26.08;;
10226;SDS011;15634;48.766;2.272;2023-02-21T07:43:57;48.35;;;25.77;;
10226;SDS011;15634;48.766;2.272;2023-02-21T07:46:25;42.75;;;24.35;;
10226;SDS011;15634;48.766;2.272;2023-02-21T07:48:52;42.42;;;24.88;;
10226;SDS011;15634;48.766;2.272;2023-02-21T07:51:19;45.75;;;26.45;;
10226;SDS011;15634;48.766;2.272;2023-02-21T07:53:45;43.47;;;25.70;;
10226;SDS011;15634;48.766;2.272;2023-02-21T07:56:14;43.63;;;26.77;;
10226;SDS011;15634;48.766;2.272;2023-02-21T07:58:40;51.72;;;30.10;;
10226;SDS011;15634;48.766;2.272;2023-02-21T08:01:07;54.13;;;30.55;;
10226;SDS011;15634;48.766;2.272;2023-02-21T08:03:34;48.58;;;30.30;;
10226;SDS011;15634;48.766;2.272;2023-02-21T08:06:05;53.45;;;33.17;;
10226;SDS011;15634;48.766;2.272;2023-02-21T08:08:32;61.45;;;34.92;;
10226;SDS011;15634;48.766;2.272;2023-02-21T08:10:59;54.53;;;32.53;;
10226;SDS011;15634;48.766;2.272;2023-02-21T08:13:30;55.65;;;31.63;;
10226;SDS011;15634;48.766;2.272;2023-02-21T08:15:57;52.72;;;32.00;;
10226;SDS011;15634;48.766;2.272;2023-02-21T08:18:23;50.10;;;30.75;;
10226;SDS011;15634;48.766;2.272;2023-02-21T08:20:51;48.22;;;29.60;;
10226;SDS011;15634;48.766;2.272;2023-02-21T08:23:18;51.30;;;30.00;;
10226;SDS011;15634;48.766;2.272;2023-02-21T08:25:45;50.85;;;29.17;;
10226;SDS011;15634;48.766;2.272;2023-02-21T08:28:12;54.50;;;28.40;;
10226;SDS011;15634;48.766;2.272;2023-02-21T08:30:40;47.80;;;26.05;;
10226;SDS011;15634;48.766;2.272;2023-02-21T08:33:07;45.47;;;24.98;;
10226;SDS011;15634;48.766;2.272;2023-02-21T08:35:34;47.38;;;25.95;;
10226;SDS011;15634;48.766;2.272;2023-02-21T08:38:00;43.03;;;25.35;;
10226;SDS011;15634;48.766;2.272;2023-02-21T08:40:28;44.28;;;25.10;;
10226;SDS011;15634;48.766;2.272;2023-02-21T08:42:56;45.35;;;25.10;;
10226;SDS011;15634;48.766;2.272;2023-02-21T08:45:24;45.38;;;24.95;;
10226;SDS011;15634;48.766;2.272;2023-02-21T08:47:53;39.65;;;22.40;;
10226;SDS011;15634;48.766;2.272;2023-02-21T08:50:20;44.50;;;24.17;;
10226;SDS011;15634;48.766;2.272;2023-02-21T08:52:47;40.10;;;23.00;;
10226;SDS011;15634;48.766;2.272;2023-02-21T08:55:15;46.60;;;24.52;;
10226;SDS011;15634;48.766;2.272;2023-02-21T08:57:43;40.72;;;22.55;;
10226;SDS011;15634;48.766;2.272;2023-02-21T09:00:11;40.45;;;21.90;;
10226;SDS011;15634;48.766;2.272;2023-02-21T09:02:39;35.40;;;21.02;;
10226;SDS011;15634;48.766;2.272;2023-02-21T09:05:08;34.95;;;19.75;;
10226;SDS011;15634;48.766;2.272;2023-02-21T09:07:37;35.75;;;19.10;;
10226;SDS011;15634;48.766;2.272;2023-02-21T09:10:04;33.45;;;20.52;;
10226;SDS011;15634;48.766;2.272;2023-02-21T09:12:34;37.65;;;19.98;;
10226;SDS011;15634;48.766;2.272;2023-02-21T09:15:01;32.63;;;19.60;;
10226;SDS011;15634;48.766;2.272;2023-02-21T09:17:28;35.00;;;18.25;;
10226;SDS011;15634;48.766;2.272;2023-02-21T09:19:57;34.47;;;19.13;;
10226;SDS011;15634;48.766;2.272;2023-02-21T09:22:26;32.95;;;18.73;;
10226;SDS011;15634;48.766;2.272;2023-02-21T09:24:53;32.65;;;18.50;;
10226;SDS011;15634;48.766;2.272;2023-02-21T09:27:20;30.63;;;18.73;;
10226;SDS011;15634;48.766;2.272;2023-02-21T09:30:00;31.88;;;19.48;;
10226;SDS011;15634;48.766;2.272;2023-02-21T09:32:28;35.75;;;18.63;;
10226;SDS011;15634;48.766;2.272;2023-02-21T09:34:55;30.30;;;17.02;;
10226;SDS011;15634;48.766;2.272;2023-02-21T09:37:21;28.38;;;16.55;;
10226;SDS011;15634;48.766;2.272;2023-02-21T09:39:49;25.52;;;15.93;;
10226;SDS011;15634;48.766;2.272;2023-02-21T09:42:16;28.33;;;16.77;;
10226;SDS011;15634;48.766;2.272;2023-02-21T09:44:44;32.20;;;17.25;;
10226;SDS011;15634;48.766;2.272;2023-02-21T09:47:12;31.25;;;17.70;;
10226;SDS011;15634;48.766;2.272;2023-02-21T09:49:41;28.10;;;16.42;;
10226;SDS011;15634;48.766;2.272;2023-02-21T09:52:11;30.45;;;16.75;;
10226;SDS011;15634;48.766;2.272;2023-02-21T09:54:45;30.52;;;16.83;;
10226;SDS011;15634;48.766;2.272;2023-02-21T09:57:14;28.08;;;15.25;;
10226;SDS011;15634;48.766;2.272;2023-02-21T09:59:41;27.80;;;15.60;;
10226;SDS011;15634;48.766;2.272;2023-02-21T10:02:17;25.45;;;15.73;;
10226;SDS011;15634;48.766;2.272;2023-02-21T10:04:54;26.38;;;15.73;;
10226;SDS011;15634;48.766;2.272;2023-02-21T10:07:26;27.75;;;14.52;;
10226;SDS011;15634;48.766;2.272;2023-02-21T10:09:59;25.80;;;15.23;;
10226;SDS011;15634;48.766;2.272;2023-02-21T10:12:32;26.23;;;15.27;;
10226;SDS011;15634;48.766;2.272;2023-02-21T10:15:12;24.70;;;15.50;;
10226;SDS011;15634;48.766;2.272;2023-02-21T10:17:43;30.73;;;15.07;;
10226;SDS011;15634;48.766;2.272;2023-02-21T10:20:13;28.65;;;16.67;;
10226;SDS011;15634;48.766;2.272;2023-02-21T10:22:43;28.88;;;16.75;;
10226;SDS011;15634;48.766;2.272;2023-02-21T10:25:17;26.00;;;16.13;;
10226;SDS011;15634;48.766;2.272;2023-02-21T10:27:48;28.48;;;15.13;;
10226;SDS011;15634;48.766;2.272;2023-02-21T10:30:16;24.40;;;14.73;;
10226;SDS011;15634;48.766;2.272;2023-02-21T10:32:46;28.42;;;15.15;;
10226;SDS011;15634;48.766;2.272;2023-02-21T10:35:12;27.08;;;15.15;;
10226;SDS011;15634;48.766;2.272;2023-02-21T10:37:39;25.58;;;14.23;;
10226;SDS011;15634;48.766;2.272;2023-02-21T10:40:15;22.85;;;14.10;;
10226;SDS011;15634;48.766;2.272;2023-02-21T10:42:53;27.27;;;13.57;;
10226;SDS011;15634;48.766;2.272;2023-02-21T10:45:24;24.38;;;14.45;;
10226;SDS011;15634;48.766;2.272;2023-02-21T10:47:57;20.77;;;13.37;;
10226;SDS011;15634;48.766;2.272;2023-02-21T10:50:37;22.60;;;12.77;;
10226;SDS011;15634;48.766;2.272;2023-02-21T10:53:06;20.55;;;12.02;;
10226;SDS011;15634;48.766;2.272;2023-02-21T10:55:33;20.73;;;11.95;;
10226;SDS011;15634;48.766;2.272;2023-02-21T10:58:06;16.80;;;11.60;;
10226;SDS011;15634;48.766;2.272;2023-02-21T11:00:34;17.30;;;11.38;;
10226;SDS011;15634;48.766;2.272;2023-02-21T11:03:03;20.13;;;12.02;;
10226;SDS011;15634;48.766;2.272;2023-02-21T11:05:31;18.98;;;11.68;;
10226;SDS011;15634;48.766;2.272;2023-02-21T11:08:01;23.52;;;12.32;;
10226;SDS011;15634;48.766;2.272;2023-02-21T11:10:32;21.95;;;12.20;;
10226;SDS011;15634;48.766;2.272;2023-02-21T11:13:12;22.35;;;12.02;;
10226;SDS011;15634;48.766;2.272;2023-02-21T11:15:40;20.73;;;10.93;;
10226;SDS011;15634;48.766;2.272;2023-02-21T11:18:14;17.38;;;10.35;;
10226;SDS011;15634;48.766;2.272;2023-02-21T11:20:42;21.52;;;10.10;;
10226;SDS011;15634;48.766;2.272;2023-02-21T11:23:16;14.48;;;9.60;;
10226;SDS011;15634;48.766;2.272;2023-02-21T11:25:45;19.08;;;11.77;;
10226;SDS011;15634;48.766;2.272;2023-02-21T11:28:18;17.65;;;10.25;;
10226;SDS011;15634;48.766;2.272;2023-02-21T11:30:47;18.83;;;10.82;;
10226;SDS011;15634;48.766;2.272;2023-02-21T11:33:17;18.30;;;10.80;;
10226;SDS011;15634;48.766;2.272;2023-02-21T11:35:45;19.38;;;10.88;;
10226;SDS011;15634;48.766;2.272;2023-02-21T11:38:28;15.68;;;9.70;;
10226;SDS011;15634;48.766;2.272;2023-02-21T11:41:00;19.30;;;10.30;;
10226;SDS011;15634;48.766;2.272;2023-02-21T11:43:29;19.63;;;10.20;;
10226;SDS011;15634;48.766;2.272;2023-02-21T11:46:02;16.80;;;10.68;;
10226;SDS011;15634;48.766;2.272;2023-02-21T11:48:32;17.15;;;9.90;;
10226;SDS011;15634;48.766;2.272;2023-02-21T11:51:03;18.48;;;11.07;;
10226;SDS011;15634;48.766;2.272;2023-02-21T11:53:33;19.20;;;11.02;;
10226;SDS011;15634;48.766;2.272;2023-02-21T11:56:06;13.88;;;10.68;;
10226;SDS011;15634;48.766;2.272;2023-02-21T11:58:42;16.85;;;10.77;;
10226;SDS011;15634;48.766;2.272;2023-02-21T12:01:13;18.95;;;10.95;;
10226;SDS011;15634;48.766;2.272;2023-02-21T12:03:55;16.92;;;9.93;;
10226;SDS011;15634;48.766;2.272;2023-02-21T12:06:40;17.65;;;9.60;;
10226;SDS011;15634;48.766;2.272;2023-02-21T12:09:11;14.77;;;8.88;;
10226;SDS011;15634;48.766;2.272;2023-02-21T12:11:44;20.45;;;10.05;;
10226;SDS011;15634;48.766;2.272;2023-02-21T12:14:21;15.90;;;9.93;;
10226;SDS011;15634;48.766;2.272;2023-02-21T12:17:25;20.73;;;10.45;;
10226;SDS011;15634;48.766;2.272;2023-02-21T12:22:54;18.95;;;9.60;;
10226;SDS011;15634;48.766;2.272;2023-02-21T12:25:28;18.98;;;10.27;;
10226;SDS011;15634;48.766;2.272;2023-02-21T12:28:02;13.82;;;9.27;;
10226;SDS011;15634;48.766;2.272;2023-02-21T12:30:50;15.40;;;9.38;;
10226;SDS011;15634;48.766;2.272;2023-02-21T12:33:24;16.95;;;9.27;;
10226;SDS011;15634;48.766;2.272;2023-02-21T12:38:53;16.83;;;9.80;;
10226;SDS011;15634;48.766;2.272;2023-02-21T12:41:30;20.17;;;9.57;;
10226;SDS011;15634;48.766;2.272;2023-02-21T12:44:10;15.75;;;9.50;;
10226;SDS011;15634;48.766;2.272;2023-02-21T12:46:41;15.15;;;9.18;;
10226;SDS011;15634;48.766;2.272;2023-02-21T12:49:11;17.38;;;9.38;;
10226;SDS011;15634;48.766;2.272;2023-02-21T12:51:40;14.25;;;8.18;;
10226;SDS011;15634;48.766;2.272;2023-02-21T12:54:09;15.23;;;9.00;;
10226;SDS011;15634;48.766;2.272;2023-02-21T12:56:41;20.05;;;8.73;;
10226;SDS011;15634;48.766;2.272;2023-02-21T12:59:12;15.85;;;8.45;;
10226;SDS011;15634;48.766;2.272;2023-02-21T13:01:43;13.27;;;8.43;;
10226;SDS011;15634;48.766;2.272;2023-02-21T13:04:15;17.83;;;8.93;;
10226;SDS011;15634;48.766;2.272;2023-02-21T13:06:47;15.02;;;8.65;;
10226;SDS011;15634;48.766;2.272;2023-02-21T13:09:20;16.67;;;9.18;;
10226;SDS011;15634;48.766;2.272;2023-02-21T13:11:54;12.43;;;8.25;;
10226;SDS011;15634;48.766;2.272;2023-02-21T13:14:25;13.30;;;8.00;;
10226;SDS011;15634;48.766;2.272;2023-02-21T13:16:55;13.55;;;8.18;;
10226;SDS011;15634;48.766;2.272;2023-02-21T13:19:22;13.77;;;8.00;;
10226;SDS011;15634;48.766;2.272;2023-02-21T13:21:54;15.38;;;8.20;;
10226;SDS011;15634;48.766;2.272;2023-02-21T13:24:53;14.75;;;9.02;;
10226;SDS011;15634;48.766;2.272;2023-02-21T13:27:32;15.68;;;9.48;;
10226;SDS011;15634;48.766;2.272;2023-02-21T13:30:10;19.88;;;9.05;;
10226;SDS011;15634;48.766;2.272;2023-02-21T13:32:48;13.50;;;9.20;;
10226;SDS011;15634;48.766;2.272;2023-02-21T13:35:18;18.90;;;8.75;;
10226;SDS011;15634;48.766;2.272;2023-02-21T13:37:46;15.20;;;8.18;;
10226;SDS011;15634;48.766;2.272;2023-02-21T13:40:17;13.18;;;8.15;;
10226;SDS011;15634;48.766;2.272;2023-02-21T13:42:47;14.98;;;8.88;;
10226;SDS011;15634;48.766;2.272;2023-02-21T13:45:24;15.82;;;8.40;;
10226;SDS011;15634;48.766;2.272;2023-02-21T13:53:13;13.45;;;8.32;;
10226;SDS011;15634;48.766;2.272;2023-02-21T13:58:40;17.73;;;8.43;;
10226;SDS011;15634;48.766;2.272;2023-02-21T14:01:13;19.48;;;9.20;;
10226;SDS011;15634;48.766;2.272;2023-02-21T14:03:47;17.50;;;9.38;;
10226;SDS011;15634;48.766;2.272;2023-02-21T14:09:09;14.43;;;7.90;;
10226;SDS011;15634;48.766;2.272;2023-02-21T14:11:38;13.60;;;8.02;;
10226;SDS011;15634;48.766;2.272;2023-02-21T14:14:20;14.23;;;7.60;;
10226;SDS011;15634;48.766;2.272;2023-02-21T14:16:50;14.65;;;7.90;;
10226;SDS011;15634;48.766;2.272;2023-02-21T14:19:21;12.98;;;7.80;;
10226;SDS011;15634;48.766;2.272;2023-02-21T14:21:50;15.73;;;8.05;;
10226;SDS011;15634;48.766;2.272;2023-02-21T14:24:22;15.45;;;7.85;;
10226;SDS011;15634;48.766;2.272;2023-02-21T14:26:50;14.32;;;7.45;;
10226;SDS011;15634;48.766;2.272;2023-02-21T14:35:01;13.55;;;6.97;;
10226;SDS011;15634;48.766;2.272;2023-02-21T14:37:31;16.08;;;7.50;;
10226;SDS011;15634;48.766;2.272;2023-02-21T14:40:00;17.33;;;7.13;;
10226;SDS011;15634;48.766;2.272;2023-02-21T14:42:45;12.60;;;6.88;;
10226;SDS011;15634;48.766;2.272;2023-02-21T14:45:21;11.60;;;7.07;;
10226;SDS011;15634;48.766;2.272;2023-02-21T14:47:59;16.77;;;6.97;;
10226;SDS011;15634;48.766;2.272;2023-02-21T14:50:37;14.45;;;7.47;;
10226;SDS011;15634;48.766;2.272;2023-02-21T14:53:25;11.25;;;6.85;;
10226;SDS011;15634;48.766;2.272;2023-02-21T14:56:23;17.05;;;7.18;;
10226;SDS011;15634;48.766;2.272;2023-02-21T14:59:41;14.07;;;6.75;;
10226;SDS011;15634;48.766;2.272;2023-02-21T15:02:22;14.00;;;6.80;;
10226;SDS011;15634;48.766;2.272;2023-02-21T15:04:53;13.18;;;7.07;;
10226;SDS011;15634;48.766;2.272;2023-02-21T15:07:25;10.85;;;6.60;;
10226;SDS011;15634;48.766;2.272;2023-02-21T15:10:03;14.98;;;6.75;;
10226;SDS011;15634;48.766;2.272;2023-02-21T15:12:34;15.25;;;6.82;;
10226;SDS011;15634;48.766;2.272;2023-02-21T15:15:02;15.70;;;7.28;;
10226;SDS011;15634;48.766;2.272;2023-02-21T15:17:28;13.25;;;7.13;;
10226;SDS011;15634;48.766;2.272;2023-02-21T15:20:02;17.02;;;7.60;;
10226;SDS011;15634;48.766;2.272;2023-02-21T15:22:32;17.13;;;7.75;;
10226;SDS011;15634;48.766;2.272;2023-02-21T15:27:52;14.43;;;7.07;;
10226;SDS011;15634;48.766;2.272;2023-02-21T15:30:21;14.40;;;7.75;;
10226;SDS011;15634;48.766;2.272;2023-02-21T15:32:52;14.40;;;6.80;;
10226;SDS011;15634;48.766;2.272;2023-02-21T15:35:21;10.20;;;6.25;;
10226;SDS011;15634;48.766;2.272;2023-02-21T15:37:50;14.35;;;6.60;;